Time;durP1;ratioP1;P1;durP2;ratioP2;P2;SDS_P1;SDS_P2;PMS_P1;PMS_P2;Temp;Humidity;BMP_temperature;BMP_pressure;BME280_temperature;BME280_humidity;BME280_pressure;Samples;Min_cycle;Max_cycle;Signal;HPM_P1;HPM_P2
2023/06/06 00:01:40;;;;;;;5.10;2.97;;;;;;;21.72;40.45;100584.53;4996761;28;20782;-62
2023/06/06 00:04:15;;;;;;;6.80;2.93;;;;;;;21.73;39.95;100588.88;5000412;28;20206;-61
2023/06/06 00:06:44;;;;;;;5.37;3.10;;;;;;;21.69;40.44;100583.09;4998283;28;20713;-62
2023/06/06 00:09:12;;;;;;;6.53;3.40;;;;;;;21.69;40.90;100582.28;4998253;28;20296;-61
2023/06/06 00:11:40;;;;;;;5.97;3.40;;;;;;;21.60;41.53;100576.31;4998702;28;20316;-61
2023/06/06 00:14:09;;;;;;;7.07;3.37;;;;;;;21.48;41.73;100588.00;5001306;28;20304;-62
2023/06/06 00:16:37;;;;;;;5.87;3.27;;;;;;;21.44;41.50;100584.91;5003550;28;20275;-63
2023/06/06 00:19:06;;;;;;;6.00;3.10;;;;;;;21.49;41.60;100581.56;5002530;28;21029;-65
2023/06/06 00:21:35;;;;;;;5.53;3.10;;;;;;;21.54;41.88;100576.34;4997627;28;20245;-61
2023/06/06 00:24:04;;;;;;;6.20;3.03;;;;;;;21.60;41.18;100580.88;5000611;28;20237;-62
2023/06/06 00:26:31;;;;;;;6.50;2.73;;;;;;;21.58;42.00;100578.38;4997683;28;20692;-62
2023/06/06 00:28:59;;;;;;;5.47;3.27;;;;;;;21.60;41.92;100586.28;4999318;28;20749;-61
2023/06/06 00:31:28;;;;;;;4.93;3.00;;;;;;;21.65;41.41;100581.03;4997613;28;20701;-60
2023/06/06 00:33:56;;;;;;;9.40;3.03;;;;;;;21.68;41.40;100586.00;5003413;28;20610;-60
2023/06/06 00:36:24;;;;;;;6.97;3.10;;;;;;;21.66;41.66;100585.38;4996675;28;20214;-63
2023/06/06 00:38:51;;;;;;;6.40;3.60;;;;;;;21.60;42.11;100580.88;4998577;28;20245;-62
2023/06/06 00:41:20;;;;;;;6.17;2.67;;;;;;;21.53;42.23;100580.09;4996775;28;20293;-61
2023/06/06 00:43:47;;;;;;;5.77;3.20;;;;;;;21.57;41.75;100584.00;4998729;28;20214;-63
2023/06/06 00:46:18;;;;;;;5.17;2.87;;;;;;;21.56;42.33;100582.34;4999721;28;20216;-62
2023/06/06 00:48:47;;;;;;;8.60;3.20;;;;;;;21.51;41.92;100579.47;4999667;28;20240;-62
2023/06/06 00:51:16;;;;;;;5.87;3.20;;;;;;;21.48;42.16;100577.19;5001802;28;20620;-62
2023/06/06 00:53:44;;;;;;;12.13;3.00;;;;;;;21.49;42.42;100584.25;4999236;28;20324;-62
2023/06/06 00:56:14;;;;;;;6.07;3.10;;;;;;;21.43;42.98;100579.72;4996376;28;20268;-61
2023/06/06 00:58:43;;;;;;;5.43;3.23;;;;;;;21.37;43.04;100576.84;4995802;28;20238;-63
2023/06/06 01:01:12;;;;;;;5.43;3.10;;;;;;;21.31;43.08;100580.41;4998063;28;20694;-61
2023/06/06 01:03:40;;;;;;;7.00;3.23;;;;;;;21.31;42.89;100577.72;4996893;28;20286;-60
2023/06/06 01:06:10;;;;;;;6.73;3.10;;;;;;;21.37;42.74;100581.44;4996159;28;20217;-61
2023/06/06 01:08:37;;;;;;;5.63;3.30;;;;;;;21.40;42.84;100587.22;5002402;28;20336;-61
2023/06/06 01:11:13;;;;;;;6.67;3.27;;;;;;;21.38;43.34;100578.50;4997697;28;20241;-62
2023/06/06 01:13:52;;;;;;;7.40;3.00;;;;;;;21.41;42.80;100585.34;5001022;28;20224;-61
2023/06/06 01:16:21;;;;;;;6.67;3.13;;;;;;;21.38;43.14;100592.00;5000540;28;20241;-62
2023/06/06 01:18:50;;;;;;;6.83;3.30;;;;;;;21.33;43.40;100586.41;5001757;28;20209;-61
2023/06/06 01:21:19;;;;;;;4.73;3.33;;;;;;;21.19;43.67;100592.94;4999413;28;20218;-62
2023/06/06 01:23:50;;;;;;;7.53;3.53;;;;;;;21.12;43.91;100593.94;4999256;28;20245;-61
2023/06/06 01:26:18;;;;;;;5.20;2.97;;;;;;;21.14;43.83;100598.09;4997157;28;20209;-61
2023/06/06 01:28:45;;;;;;;7.47;3.20;;;;;;;21.17;43.61;100592.31;4996357;28;20293;-64
2023/06/06 01:31:20;;;;;;;8.43;3.40;;;;;;;21.18;43.52;100590.44;4995925;28;20572;-62
2023/06/06 01:33:55;;;;;;;5.03;3.27;;;;;;;21.16;44.29;100596.03;4998903;28;20321;-63
2023/06/06 01:36:30;;;;;;;9.00;3.50;;;;;;;21.17;43.63;100596.84;4996767;28;20592;-62
2023/06/06 01:39:07;;;;;;;5.23;2.93;;;;;;;21.15;44.20;100593.53;4997032;28;20217;-62
2023/06/06 01:41:37;;;;;;;6.90;3.13;;;;;;;21.13;44.12;100593.75;4998324;28;20205;-60
2023/06/06 01:44:08;;;;;;;6.80;3.00;;;;;;;21.14;43.92;100590.00;4997755;28;20291;-60
2023/06/06 01:46:37;;;;;;;6.07;3.43;;;;;;;21.12;44.40;100593.94;4999742;28;20267;-61
2023/06/06 01:49:05;;;;;;;6.10;3.40;;;;;;;21.13;44.31;100599.13;4997870;28;20217;-63
2023/06/06 01:51:33;;;;;;;11.17;3.30;;;;;;;21.14;44.05;100598.09;4995719;28;20323;-61
2023/06/06 01:54:02;;;;;;;5.73;3.23;;;;;;;21.10;44.38;100602.28;4999969;28;20225;-61
2023/06/06 01:56:33;;;;;;;6.70;3.50;;;;;;;21.07;44.68;100602.69;4996048;28;20271;-63
2023/06/06 01:59:01;;;;;;;7.27;3.73;;;;;;;21.04;44.96;100603.94;4994074;28;20241;-62
2023/06/06 02:01:29;;;;;;;6.57;3.43;;;;;;;21.02;44.93;100610.59;4993903;28;20222;-61
2023/06/06 02:03:57;;;;;;;8.33;3.77;;;;;;;21.01;44.83;100608.94;4996123;28;20786;-62
2023/06/06 02:06:25;;;;;;;6.60;3.57;;;;;;;20.95;45.39;100613.28;4995024;28;20292;-63
2023/06/06 02:08:53;;;;;;;4.90;3.50;;;;;;;20.96;45.10;100614.97;5001859;28;20361;-61
2023/06/06 02:11:23;;;;;;;9.67;4.00;;;;;;;20.95;45.46;100621.38;5000521;28;20271;-65
2023/06/06 02:13:51;;;;;;;5.90;3.40;;;;;;;20.93;45.40;100617.28;5002124;28;20230;-62
2023/06/06 02:16:18;;;;;;;7.00;4.17;;;;;;;20.87;45.66;100618.09;5000064;28;20264;-62
2023/06/06 02:18:46;;;;;;;7.23;3.53;;;;;;;20.91;45.22;100613.94;5003536;28;20274;-62
2023/06/06 02:21:14;;;;;;;5.87;3.70;;;;;;;20.90;45.43;100609.59;5003846;28;20211;-61
2023/06/06 02:23:42;;;;;;;6.53;4.03;;;;;;;20.83;45.97;100612.31;5001185;28;22170;-63
2023/06/06 02:26:10;;;;;;;5.53;3.70;;;;;;;20.83;45.82;100614.19;4998923;28;20994;-61
2023/06/06 02:28:39;;;;;;;7.50;4.20;;;;;;;20.88;45.64;100614.34;5000388;28;20319;-65
2023/06/06 02:31:08;;;;;;;10.33;4.20;;;;;;;20.83;46.27;100616.88;5001468;28;20209;-65
2023/06/06 02:33:37;;;;;;;5.83;3.63;;;;;;;20.83;45.78;100614.19;5002750;28;20884;-63
2023/06/06 02:36:06;;;;;;;6.27;3.83;;;;;;;20.80;46.85;100609.19;5001298;28;20221;-65
2023/06/06 02:38:33;;;;;;;7.33;3.87;;;;;;;20.70;46.77;100612.34;5002112;28;20209;-64
2023/06/06 02:41:01;;;;;;;5.70;3.70;;;;;;;20.65;47.21;100607.59;5000744;28;20301;-66
2023/06/06 02:43:29;;;;;;;9.10;4.37;;;;;;;20.67;46.77;100613.56;4995457;28;20233;-65
2023/06/06 02:45:58;;;;;;;6.83;4.03;;;;;;;20.66;46.87;100608.41;4995476;28;20217;-65
2023/06/06 02:48:26;;;;;;;6.87;3.90;;;;;;;20.68;46.76;100619.78;4996519;28;20255;-67
2023/06/06 02:50:54;;;;;;;5.33;3.70;;;;;;;20.70;46.79;100609.63;5001397;28;21246;-65
2023/06/06 02:53:23;;;;;;;6.63;3.53;;;;;;;20.67;47.39;100605.50;5002631;28;20356;-65
2023/06/06 02:55:51;;;;;;;5.67;3.70;;;;;;;20.71;46.67;100613.16;4997993;28;20674;-65
2023/06/06 02:58:28;;;;;;;6.43;4.23;;;;;;;20.70;47.01;100617.72;4997250;28;20206;-65
2023/06/06 03:00:58;;;;;;;7.47;4.00;;;;;;;20.70;46.75;100619.59;4996361;28;20279;-66
2023/06/06 03:03:26;;;;;;;10.57;4.40;;;;;;;20.68;47.35;100619.78;4997009;28;20241;-66
2023/06/06 03:05:54;;;;;;;7.17;3.97;;;;;;;20.67;46.89;100617.34;5000668;28;20217;-66
2023/06/06 03:08:23;;;;;;;8.13;4.73;;;;;;;20.67;47.02;100625.41;4999074;28;20209;-66
2023/06/06 03:10:52;;;;;;;7.97;4.30;;;;;;;20.62;46.98;100621.47;5001824;28;20240;-65
2023/06/06 03:13:20;;;;;;;8.70;4.60;;;;;;;20.55;47.52;100622.53;4999072;28;20240;-67
2023/06/06 03:15:48;;;;;;;6.80;4.33;;;;;;;20.55;47.33;100626.03;5001110;28;20270;-59
2023/06/06 03:18:20;;;;;;;6.53;4.03;;;;;;;20.46;48.06;100635.38;5000736;28;20532;-60
2023/06/06 03:20:51;;;;;;;7.43;3.83;;;;;;;20.32;48.34;100632.88;4999534;28;20698;-58
2023/06/06 03:23:19;;;;;;;6.67;4.00;;;;;;;20.27;48.54;100636.19;5002372;28;22085;-58
2023/06/06 03:25:49;;;;;;;7.50;4.60;;;;;;;20.17;48.91;100630.38;4996729;28;20217;-57
2023/06/06 03:28:17;;;;;;;7.77;4.53;;;;;;;20.14;49.04;100631.59;4997178;28;20242;-60
2023/06/06 03:30:46;;;;;;;7.00;4.27;;;;;;;20.11;48.96;100632.03;4997420;28;20217;-59
2023/06/06 03:33:15;;;;;;;11.60;4.67;;;;;;;20.01;49.02;100633.47;4997858;28;20300;-60
2023/06/06 03:35:44;;;;;;;6.10;3.77;;;;;;;20.02;49.26;100630.59;4998994;28;20246;-64
2023/06/06 03:38:12;;;;;;;6.57;4.47;;;;;;;19.92;50.08;100640.91;4995425;28;20718;-65
2023/06/06 03:40:40;;;;;;;7.43;3.70;;;;;;;19.85;50.27;100640.91;4997079;28;20205;-66
2023/06/06 03:43:08;;;;;;;8.27;4.33;;;;;;;19.81;50.42;100639.66;4993641;28;20224;-65
2023/06/06 03:45:35;;;;;;;11.93;4.57;;;;;;;19.85;50.07;100645.47;4996958;28;20224;-66
2023/06/06 03:48:04;;;;;;;8.07;3.77;;;;;;;19.83;50.64;100634.06;4998033;28;20726;-66
2023/06/06 03:50:32;;;;;;;5.83;3.70;;;;;;;19.74;51.06;100638.81;4993790;28;20585;-65
2023/06/06 03:53:01;;;;;;;8.87;4.73;;;;;;;19.80;50.53;100640.69;4996174;28;20210;-67
2023/06/06 03:55:32;;;;;;;9.73;4.17;;;;;;;19.84;50.38;100641.94;4996908;28;20301;-58
2023/06/06 03:58:00;;;;;;;7.33;3.87;;;;;;;19.81;50.45;100647.72;4997265;28;20287;-59
2023/06/06 04:00:28;;;;;;;7.00;4.07;;;;;;;19.77;50.60;100646.50;4997922;28;20303;-59
2023/06/06 04:02:56;;;;;;;10.40;4.20;;;;;;;19.78;50.29;100642.78;4998231;28;20244;-59
2023/06/06 04:05:24;;;;;;;7.33;3.67;;;;;;;19.74;50.32;100649.56;4999676;28;20241;-60
2023/06/06 04:07:52;;;;;;;7.80;4.43;;;;;;;19.75;50.69;100651.25;5000869;28;20228;-59
2023/06/06 04:10:21;;;;;;;7.50;5.10;;;;;;;19.75;50.26;100653.94;5001913;28;20866;-58
2023/06/06 04:12:48;;;;;;;6.40;4.57;;;;;;;19.76;50.36;100647.53;4998256;28;20755;-60
2023/06/06 04:15:16;;;;;;;7.40;5.10;;;;;;;19.74;50.76;100652.25;4996882;28;20320;-59
2023/06/06 04:17:45;;;;;;;6.77;4.53;;;;;;;19.75;50.55;100651.25;5001781;28;20970;-60
2023/06/06 04:20:13;;;;;;;6.43;4.40;;;;;;;19.74;50.80;100649.56;5000882;28;20831;-59
2023/06/06 04:22:41;;;;;;;9.27;4.73;;;;;;;19.74;50.68;100652.25;5002327;28;20290;-60
2023/06/06 04:25:09;;;;;;;9.50;4.63;;;;;;;19.77;50.60;100651.03;5000615;28;20790;-60
2023/06/06 04:27:40;;;;;;;6.50;4.23;;;;;;;19.68;51.32;100650.41;4999783;28;20237;-59
2023/06/06 04:30:12;;;;;;;9.27;3.97;;;;;;;19.68;51.25;100654.94;5001801;28;20243;-57
2023/06/06 04:32:40;;;;;;;7.23;4.40;;;;;;;19.69;51.38;100659.31;4996371;28;20241;-60
2023/06/06 04:35:12;;;;;;;6.10;4.40;;;;;;;19.68;51.25;100657.63;4998663;28;20229;-60
2023/06/06 04:37:40;;;;;;;6.60;4.13;;;;;;;19.69;51.42;100652.06;4997091;28;20210;-59
2023/06/06 04:40:10;;;;;;;7.87;4.40;;;;;;;19.76;51.10;100657.44;4997329;28;20642;-60
2023/06/06 04:42:39;;;;;;;7.70;4.00;;;;;;;19.73;51.40;100652.47;4995825;28;20236;-58
2023/06/06 04:45:09;;;;;;;9.37;3.93;;;;;;;19.77;51.18;100653.72;4998747;28;20586;-58
2023/06/06 04:47:36;;;;;;;5.80;3.93;;;;;;;19.81;51.59;100663.03;4997497;28;20285;-60
2023/06/06 04:50:06;;;;;;;8.30;4.60;;;;;;;19.79;51.55;100663.22;4995056;28;20244;-56
2023/06/06 04:52:34;;;;;;;13.83;4.70;;;;;;;19.81;51.34;100666.56;4999093;28;20216;-59
2023/06/06 04:55:03;;;;;;;7.03;4.17;;;;;;;19.83;51.45;100658.28;4998362;28;20229;-61
2023/06/06 04:57:32;;;;;;;6.83;4.70;;;;;;;19.85;51.78;100661.59;4998333;28;20222;-59
2023/06/06 05:00:05;;;;;;;13.00;5.17;;;;;;;19.84;51.59;100663.47;5002424;28;20206;-61
2023/06/06 05:02:33;;;;;;;6.77;4.43;;;;;;;19.86;52.02;100666.78;4996641;28;20210;-62
2023/06/06 05:05:01;;;;;;;8.03;4.70;;;;;;;19.92;51.32;100668.66;4999533;28;20255;-59
2023/06/06 05:07:29;;;;;;;10.97;4.70;;;;;;;19.95;51.47;100667.44;4998012;28;20256;-58
2023/06/06 05:09:57;;;;;;;8.43;4.80;;;;;;;19.96;51.64;100665.56;4999881;28;20271;-60
2023/06/06 05:12:25;;;;;;;6.33;4.30;;;;;;;19.97;52.01;100659.13;5003978;28;20214;-59
2023/06/06 05:14:53;;;;;;;7.40;4.60;;;;;;;19.94;51.78;100659.56;4998865;28;20283;-60
2023/06/06 05:17:23;;;;;;;7.50;4.87;;;;;;;20.00;51.74;100662.25;5000103;28;20682;-62
2023/06/06 05:19:51;;;;;;;8.30;4.87;;;;;;;20.03;51.83;100659.16;4998202;28;21302;-57
2023/06/06 05:22:18;;;;;;;8.30;5.03;;;;;;;20.04;52.89;100663.50;4998264;28;20268;-59
2023/06/06 05:24:46;;;;;;;7.97;4.30;;;;;;;20.03;52.29;100658.34;4997744;28;20292;-60
2023/06/06 05:27:14;;;;;;;9.13;5.43;;;;;;;20.07;52.20;100659.56;4998903;28;20305;-60
2023/06/06 05:29:42;;;;;;;10.43;4.90;;;;;;;20.12;51.65;100667.88;5001706;28;20292;-59
2023/06/06 05:32:10;;;;;;;8.37;5.83;;;;;;;20.17;51.73;100657.28;4996704;28;20307;-59
2023/06/06 05:34:40;;;;;;;10.33;5.40;;;;;;;20.19;51.64;100669.53;4997214;28;20296;-59
2023/06/06 05:37:07;;;;;;;7.97;4.97;;;;;;;20.17;51.85;100670.75;4996817;28;20670;-59
2023/06/06 05:39:35;;;;;;;8.87;4.80;;;;;;;20.23;51.99;100664.53;4996703;28;20216;-63
2023/06/06 05:42:03;;;;;;;15.20;5.80;;;;;;;20.29;51.89;100671.81;5000634;28;20977;-59
2023/06/06 05:44:31;;;;;;;16.80;6.43;;;;;;;20.34;52.15;100676.56;5003320;28;20292;-61
2023/06/06 05:46:59;;;;;;;22.60;6.90;;;;;;;20.37;51.91;100676.19;5003897;28;20228;-58
2023/06/06 05:49:27;;;;;;;10.50;4.60;;;;;;;20.37;52.18;100670.81;5003872;28;20295;-59
2023/06/06 05:51:56;;;;;;;9.83;4.60;;;;;;;20.39;52.14;100669.56;5003111;28;20224;-59
2023/06/06 05:54:23;;;;;;;18.13;5.83;;;;;;;20.44;51.54;100675.16;5002107;28;20209;-59
2023/06/06 05:56:56;;;;;;;11.77;5.20;;;;;;;20.47;52.02;100671.22;4998742;28;20298;-60
2023/06/06 05:59:25;;;;;;;9.83;5.20;;;;;;;20.50;52.44;100676.19;5001938;28;20222;-58
2023/06/06 06:01:52;;;;;;;10.00;5.00;;;;;;;20.56;51.88;100681.59;5001456;28;20248;-61
2023/06/06 06:04:20;;;;;;;10.70;4.73;;;;;;;20.59;51.98;100681.16;5001654;28;20249;-59
2023/06/06 06:06:49;;;;;;;9.20;4.37;;;;;;;20.65;51.68;100684.91;4999476;28;20264;-59
2023/06/06 06:09:19;;;;;;;10.97;4.87;;;;;;;20.69;51.96;100679.91;5001001;28;20210;-60
2023/06/06 06:11:50;;;;;;;9.97;4.60;;;;;;;20.75;52.04;100684.47;5000799;28;20241;-60
2023/06/06 06:14:18;;;;;;;8.43;4.90;;;;;;;20.81;51.74;100683.63;5003025;28;20271;-58
2023/06/06 06:16:45;;;;;;;10.17;5.27;;;;;;;20.88;51.55;100684.44;5002838;28;20264;-61
2023/06/06 06:19:13;;;;;;;10.20;5.27;;;;;;;20.92;51.05;100683.81;5005386;28;20253;-59
2023/06/06 06:21:41;;;;;;;11.87;5.40;;;;;;;20.98;51.16;100691.06;5004028;28;20237;-60
2023/06/06 06:24:09;;;;;;;11.07;5.63;;;;;;;21.06;51.45;100684.59;5001187;28;20247;-61
2023/06/06 06:26:38;;;;;;;14.67;5.30;;;;;;;21.12;50.91;100693.72;5001349;28;20319;-61
2023/06/06 06:29:06;;;;;;;11.80;4.87;;;;;;;21.15;50.42;100694.13;5000455;28;20333;-60
2023/06/06 06:31:34;;;;;;;10.40;5.13;;;;;;;21.22;50.67;100686.03;5000495;28;20217;-60
2023/06/06 06:34:01;;;;;;;11.67;4.43;;;;;;;21.26;50.09;100685.41;5001226;28;20217;-59
2023/06/06 06:36:29;;;;;;;8.70;4.83;;;;;;;21.31;49.98;100693.69;5000517;28;20237;-60
2023/06/06 06:38:57;;;;;;;10.97;5.00;;;;;;;21.33;49.49;100691.63;5003903;28;20626;-59
2023/06/06 06:41:25;;;;;;;7.60;4.50;;;;;;;21.38;49.73;100694.50;5008861;28;20213;-60
2023/06/06 06:43:54;;;;;;;11.60;5.00;;;;;;;21.44;49.93;100692.00;5001660;28;20654;-58
2023/06/06 06:46:22;;;;;;;9.23;5.13;;;;;;;21.46;49.91;100688.03;5002306;28;20240;-59
2023/06/06 06:48:50;;;;;;;11.47;4.93;;;;;;;21.48;50.03;100695.91;5003778;28;20218;-59
2023/06/06 06:51:21;;;;;;;11.80;4.33;;;;;;;21.56;49.20;100695.66;5004684;28;20221;-60
2023/06/06 06:53:51;;;;;;;6.40;3.70;;;;;;;21.62;48.26;100700.22;5002066;28;20202;-60
2023/06/06 06:56:19;;;;;;;11.90;3.97;;;;;;;21.59;48.08;100692.53;5002067;28;20251;-57
2023/06/06 06:58:48;;;;;;;10.77;4.47;;;;;;;21.61;47.63;100698.56;5005147;28;20299;-61
2023/06/06 07:01:19;;;;;;;7.90;4.03;;;;;;;21.68;48.14;100697.47;5004403;28;20674;-58
2023/06/06 07:03:48;;;;;;;5.43;4.07;;;;;;;21.72;47.32;100698.69;5002131;28;20558;-60
2023/06/06 07:06:16;;;;;;;6.47;4.23;;;;;;;21.78;47.62;100697.03;4999592;28;20206;-59
2023/06/06 07:08:44;;;;;;;8.57;5.27;;;;;;;21.83;47.32;100699.88;5001588;28;20229;-60
2023/06/06 07:11:11;;;;;;;12.80;5.10;;;;;;;21.90;47.27;100697.19;5003002;28;20219;-59
2023/06/06 07:13:39;;;;;;;10.97;5.67;;;;;;;21.96;47.96;100694.44;5003753;28;20220;-59
2023/06/06 07:16:09;;;;;;;7.13;4.53;;;;;;;22.02;47.00;100701.69;5000741;28;20320;-59
2023/06/06 07:18:38;;;;;;;5.30;3.23;;;;;;;22.08;47.09;100698.09;5002869;28;20213;-60
2023/06/06 07:21:06;;;;;;;9.10;4.40;;;;;;;22.13;47.84;100706.41;5002494;28;20210;-59
2023/06/06 07:23:34;;;;;;;11.17;4.40;;;;;;;22.19;46.74;100699.28;5000929;28;20268;-60
2023/06/06 07:26:06;;;;;;;7.47;4.73;;;;;;;22.24;47.00;100701.34;4999234;28;20300;-60
2023/06/06 07:28:34;;;;;;;10.33;5.57;;;;;;;22.35;48.49;100700.63;5001903;28;20217;-62
2023/06/06 07:31:02;;;;;;;12.83;6.23;;;;;;;22.39;49.03;100704.53;5001200;28;20216;-60
2023/06/06 07:33:30;;;;;;;22.80;7.63;;;;;;;22.45;48.88;100709.06;5000098;28;20220;-59
2023/06/06 07:35:59;;;;;;;13.73;5.50;;;;;;;22.50;48.43;100696.56;5000452;28;20316;-59
2023/06/06 07:38:27;;;;;;;11.97;5.60;;;;;;;22.59;48.22;100699.00;4996330;28;20237;-60
2023/06/06 07:40:54;;;;;;;14.97;5.40;;;;;;;22.63;47.52;100695.59;5003389;28;20272;-60
2023/06/06 07:43:22;;;;;;;14.43;4.70;;;;;;;22.71;47.44;100692.63;5002114;28;20637;-59
2023/06/06 07:45:50;;;;;;;11.10;4.50;;;;;;;22.76;47.76;100686.59;5002579;28;20241;-58
2023/06/06 07:48:19;;;;;;;8.52;4.68;;;;;;;22.81;48.15;100687.56;4996949;28;20218;-60
2023/06/06 07:50:47;;;;;;;10.75;4.40;;;;;;;22.86;48.16;100695.84;5006528;28;20244;-59
2023/06/06 07:53:16;;;;;;;10.87;5.33;;;;;;;22.93;47.80;100697.66;5003832;28;20222;-59
2023/06/06 07:55:44;;;;;;;11.73;4.65;;;;;;;23.01;46.88;100691.97;5000184;28;20229;-59
2023/06/06 07:58:12;;;;;;;9.90;4.45;;;;;;;23.06;46.82;100694.81;5000079;28;20343;-58
2023/06/06 08:00:40;;;;;;;11.80;4.67;;;;;;;23.11;46.66;100698.50;4999735;28;20252;-57
2023/06/06 08:03:11;;;;;;;8.35;4.15;;;;;;;23.18;46.90;100687.59;5003669;28;20260;-59
2023/06/06 08:05:39;;;;;;;9.35;4.30;;;;;;;23.26;46.59;100695.41;4999264;28;20204;-59
2023/06/06 08:08:07;;;;;;;6.55;3.88;;;;;;;23.31;45.47;100698.25;5002256;28;20353;-61
2023/06/06 08:10:36;;;;;;;11.17;4.03;;;;;;;23.39;44.61;100692.56;5001724;28;20740;-60
2023/06/06 08:13:04;;;;;;;4.78;3.10;;;;;;;23.47;43.68;100692.25;4998632;28;20359;-58
2023/06/06 08:15:32;;;;;;;7.95;3.40;;;;;;;23.60;42.33;100689.41;5000671;28;20264;-58
2023/06/06 08:17:59;;;;;;;8.50;3.25;;;;;;;23.73;41.27;100691.13;4999338;28;20272;-57
2023/06/06 08:20:27;;;;;;;8.43;3.70;;;;;;;23.73;41.04;100690.28;4999536;28;20252;-60
2023/06/06 08:22:55;;;;;;;6.70;3.60;;;;;;;23.80;41.29;100685.63;5000757;28;20249;-60
2023/06/06 08:25:23;;;;;;;8.15;3.63;;;;;;;23.80;41.14;100686.44;5002376;28;20266;-58
2023/06/06 08:27:52;;;;;;;6.88;3.55;;;;;;;23.80;41.81;100689.16;5004236;28;20245;-61
2023/06/06 08:30:21;;;;;;;8.55;3.47;;;;;;;23.81;42.17;100681.84;5002922;28;20328;-60
2023/06/06 08:32:50;;;;;;;10.43;3.60;;;;;;;23.89;42.49;100693.19;5000166;28;20208;-59
2023/06/06 08:35:19;;;;;;;6.05;3.38;;;;;;;24.07;41.11;100686.88;5001048;28;20229;-59
2023/06/06 08:37:47;;;;;;;6.28;2.97;;;;;;;24.18;40.29;100687.97;4996844;28;20986;-59
2023/06/06 08:40:15;;;;;;;9.38;3.92;;;;;;;24.23;40.36;100686.25;5002704;28;20212;-59
2023/06/06 08:42:45;;;;;;;6.28;3.25;;;;;;;24.30;38.89;100681.53;4999904;28;20209;-60
2023/06/06 08:45:14;;;;;;;7.07;3.00;;;;;;;24.35;38.42;100683.56;4998793;28;20616;-60
2023/06/06 08:47:44;;;;;;;6.13;2.80;;;;;;;24.41;38.31;100681.78;5000870;28;20209;-59
2023/06/06 08:50:12;;;;;;;7.00;3.00;;;;;;;24.43;38.22;100690.53;5002287;28;20666;-58
2023/06/06 08:52:41;;;;;;;5.47;3.28;;;;;;;24.50;38.53;100683.09;5001984;28;20221;-59
2023/06/06 08:55:10;;;;;;;5.85;3.10;;;;;;;24.47;38.12;100694.41;5001829;28;20691;-60
2023/06/06 08:57:41;;;;;;;4.90;2.97;;;;;;;24.58;37.91;100683.59;4998106;28;20304;-60
2023/06/06 09:00:18;;;;;;;5.68;2.67;;;;;;;24.68;38.41;100683.00;5002699;28;20206;-58
2023/06/06 09:02:48;;;;;;;5.30;3.03;;;;;;;24.74;38.40;100682.06;4997603;28;20204;-59
2023/06/06 09:05:19;;;;;;;6.38;3.40;;;;;;;24.84;38.83;100687.72;5003054;28;20827;-59
2023/06/06 09:07:48;;;;;;;6.30;3.60;;;;;;;24.93;38.86;100680.91;4997217;28;20877;-59
2023/06/06 09:10:16;;;;;;;8.18;3.67;;;;;;;25.00;38.58;100687.03;5000266;28;20259;-58
2023/06/06 09:12:45;;;;;;;6.93;3.65;;;;;;;25.06;39.53;100686.09;4999589;28;20241;-59
2023/06/06 09:15:13;;;;;;;5.88;3.67;;;;;;;25.11;39.66;100685.38;4998460;28;20240;-59
2023/06/06 09:17:44;;;;;;;5.43;3.35;;;;;;;25.22;39.34;100683.69;4998550;28;20724;-61
2023/06/06 09:20:15;;;;;;;8.82;3.65;;;;;;;25.31;39.05;100671.41;4996846;28;20923;-59
2023/06/06 09:22:45;;;;;;;7.93;3.58;;;;;;;25.38;39.16;100674.81;5004295;28;20328;-59
2023/06/06 09:25:17;;;;;;;7.35;3.92;;;;;;;25.27;38.96;100675.66;5002271;28;20255;-59
2023/06/06 09:27:47;;;;;;;5.57;3.50;;;;;;;25.40;38.63;100672.69;4999097;28;20325;-60
2023/06/06 09:30:22;;;;;;;8.43;3.55;;;;;;;25.64;38.74;100681.59;5003688;28;20220;-59
2023/06/06 09:32:56;;;;;;;7.63;3.45;;;;;;;25.70;38.77;100675.19;4998758;28;20227;-57
2023/06/06 09:35:30;;;;;;;6.63;3.63;;;;;;;25.76;39.11;100666.91;4998203;28;20208;-59
2023/06/06 09:38:06;;;;;;;8.60;3.58;;;;;;;25.79;39.42;100669.13;4997423;28;20331;-59
2023/06/06 09:40:42;;;;;;;6.05;3.90;;;;;;;25.89;38.82;100673.09;5000231;28;20220;-59
2023/06/06 09:43:10;;;;;;;9.27;3.80;;;;;;;25.94;38.47;100676.75;5001324;28;20579;-59
2023/06/06 09:45:48;;;;;;;7.93;4.10;;;;;;;25.94;37.83;100673.22;5003878;28;20220;-60
2023/06/06 09:48:21;;;;;;;8.02;4.40;;;;;;;26.02;38.74;100667.38;5000508;28;20236;-60
2023/06/06 09:50:51;;;;;;;10.85;3.95;;;;;;;26.06;38.52;100676.66;4998884;28;20216;-58
2023/06/06 09:53:19;;;;;;;7.32;3.95;;;;;;;26.21;38.62;100668.81;4996872;28;20860;-60
2023/06/06 09:55:48;;;;;;;6.72;3.55;;;;;;;26.26;37.71;100668.03;4997679;28;20225;-58
2023/06/06 09:58:16;;;;;;;6.22;3.65;;;;;;;26.35;37.80;100667.44;5001223;28;20229;-58
2023/06/06 10:00:45;;;;;;;5.10;3.75;;;;;;;26.42;37.39;100667.25;4998423;28;20210;-59
2023/06/06 10:03:18;;;;;;;7.10;3.85;;;;;;;26.37;37.85;100662.56;5001067;28;20204;-60
2023/06/06 10:05:48;;;;;;;6.85;3.65;;;;;;;26.56;37.37;100655.78;4999749;28;20587;-60
2023/06/06 10:08:18;;;;;;;5.53;4.00;;;;;;;26.69;36.83;100651.06;4998240;28;20301;-61
2023/06/06 10:10:49;;;;;;;5.07;3.80;;;;;;;26.68;37.55;100652.16;4996271;28;20213;-58
2023/06/06 10:13:17;;;;;;;7.63;3.92;;;;;;;26.69;37.71;100649.19;5002753;28;20216;-61
2023/06/06 10:15:45;;;;;;;5.45;3.70;;;;;;;26.78;37.29;100644.13;5003672;28;20213;-58
2023/06/06 10:18:14;;;;;;;6.95;4.10;;;;;;;26.85;37.50;100650.22;5001397;28;20325;-61
2023/06/06 10:20:42;;;;;;;7.63;4.30;;;;;;;26.85;36.60;100656.47;5000989;28;20210;-60
2023/06/06 10:23:10;;;;;;;6.70;4.05;;;;;;;26.90;37.02;100656.56;4998749;28;20264;-62
2023/06/06 10:25:40;;;;;;;4.63;3.85;;;;;;;27.04;36.13;100656.22;5000531;28;20308;-60
2023/06/06 10:28:15;;;;;;;7.68;3.88;;;;;;;26.95;36.56;100655.84;5000781;28;20729;-60
2023/06/06 10:30:53;;;;;;;7.00;4.00;;;;;;;26.77;36.27;100647.94;5002834;28;20289;-60
2023/06/06 10:33:41;;;;;;;6.13;3.70;;;;;;;27.03;35.86;100658.13;5006375;28;20217;-58
2023/06/06 10:36:10;;;;;;;7.07;3.70;;;;;;;27.28;36.11;100649.44;5003699;28;20244;-59
2023/06/06 10:38:38;;;;;;;5.13;3.70;;;;;;;27.42;35.07;100647.19;5003922;28;20302;-60
2023/06/06 10:41:16;;;;;;;5.13;3.85;;;;;;;27.44;36.22;100645.84;5005746;28;20667;-59
2023/06/06 10:43:51;;;;;;;4.68;3.88;;;;;;;27.37;35.83;100639.75;5006877;28;20658;-60
2023/06/06 10:46:19;;;;;;;6.90;3.88;;;;;;;27.56;35.69;100634.84;5005494;28;20622;-60
2023/06/06 10:48:55;;;;;;;6.45;3.58;;;;;;;27.63;34.70;100647.16;5003284;28;20265;-61
2023/06/06 10:51:30;;;;;;;9.20;3.97;;;;;;;27.69;34.92;100637.16;5006160;28;20205;-58
2023/06/06 10:54:18;;;;;;;5.57;4.00;;;;;;;27.60;35.16;100638.69;5001404;28;20308;-59
2023/06/06 10:56:54;;;;;;;6.43;3.78;;;;;;;27.64;34.21;100620.75;5003371;28;20293;-59
2023/06/06 10:59:25;;;;;;;6.68;3.50;;;;;;;27.60;34.37;100619.63;5004150;28;20316;-59
2023/06/06 11:01:53;;;;;;;5.85;3.70;;;;;;;27.73;34.53;100624.66;5003559;28;20216;-60
2023/06/06 11:04:23;;;;;;;6.82;4.10;;;;;;;27.83;34.99;100619.31;5001692;28;20208;-58
2023/06/06 11:06:52;;;;;;;6.53;3.78;;;;;;;27.87;34.89;100620.44;4999812;28;20607;-58
2023/06/06 11:09:22;;;;;;;172.65;24.88;;;;;;;28.01;34.43;100621.66;5003606;28;20210;-60
2023/06/06 11:11:51;;;;;;;176.15;22.20;;;;;;;28.04;33.64;100615.69;5003533;28;20217;-58
2023/06/06 11:14:22;;;;;;;13.30;3.65;;;;;;;28.09;33.37;100613.00;5004855;28;20208;-59
2023/06/06 11:17:12;;;;;;;11.98;4.70;;;;;;;28.12;32.86;100610.84;5000907;28;20221;-60
2023/06/06 11:19:43;;;;;;;5.47;3.83;;;;;;;28.05;34.40;100617.34;4999073;28;20252;-60
2023/06/06 11:22:22;;;;;;;7.88;3.42;;;;;;;27.97;33.22;100606.09;5003690;28;20686;-58
2023/06/06 11:24:50;;;;;;;7.45;3.67;;;;;;;27.93;33.16;100608.50;4999977;28;20217;-58
2023/06/06 11:27:18;;;;;;;5.25;3.17;;;;;;;28.23;33.26;100610.69;5005091;28;20212;-62
2023/06/06 11:29:48;;;;;;;8.60;4.15;;;;;;;28.27;33.51;100605.53;5000255;28;20217;-59
2023/06/06 11:32:16;;;;;;;6.20;3.30;;;;;;;28.40;32.61;100605.91;5006807;28;20294;-60
2023/06/06 11:34:43;;;;;;;8.52;3.85;;;;;;;28.53;31.45;100601.06;5000996;28;20300;-58